Time;durP1;ratioP1;P1;durP2;ratioP2;P2;SDS_P1;SDS_P2;PMS_P1;PMS_P2;Temp;Humidity;BMP_temperature;BMP_pressure;BME280_temperature;BME280_humidity;BME280_pressure;Samples;Min_cycle;Max_cycle;Signal;HPM_P1;HPM_P2
2021/01/03 00:03:40;;;;;;;1.35;0.60;;;10.70;60.60;;;;;;20687417;28;20041;-72
2021/01/03 00:13:41;;;;;;;1.73;0.98;;;10.70;60.60;;;;;;20714821;28;20285;-74
2021/01/03 00:23:42;;;;;;;1.30;0.85;;;10.70;60.70;;;;;;20725778;28;20057;-74
2021/01/03 00:33:42;;;;;;;2.00;0.88;;;10.70;60.70;;;;;;20704449;28;20065;-72
2021/01/03 00:43:44;;;;;;;0.68;0.47;;;10.70;60.60;;;;;;20724313;28;20041;-72
2021/01/03 00:53:45;;;;;;;2.00;0.77;;;10.70;60.70;;;;;;20736094;28;20052;-72
2021/01/03 01:03:45;;;;;;;1.63;0.80;;;10.70;60.70;;;;;;20720062;28;20034;-73
2021/01/03 01:13:46;;;;;;;0.60;0.45;;;10.70;60.70;;;;;;20721510;28;20088;-73
2021/01/03 01:23:47;;;;;;;4.30;0.90;;;10.70;60.70;;;;;;20723421;28;20361;-73
2021/01/03 01:33:47;;;;;;;0.50;0.50;;;10.70;60.70;;;;;;20728371;28;20560;-75
2021/01/03 01:43:48;;;;;;;1.70;0.70;;;10.70;60.80;;;;;;20702128;28;20034;-71
2021/01/03 01:53:51;;;;;;;2.15;0.90;;;10.70;60.80;;;;;;20686850;28;20033;-72
2021/01/03 02:03:59;;;;;;;0.75;0.28;;;10.70;60.70;;;;;;20740394;28;20052;-72
2021/01/03 02:14:00;;;;;;;1.83;0.73;;;10.70;60.80;;;;;;20704890;28;20119;-71
2021/01/03 02:24:15;;;;;;;0.90;0.88;;;10.70;60.90;;;;;;20696888;28;20061;-72
2021/01/03 02:34:24;;;;;;;1.58;0.50;;;10.70;60.80;;;;;;20704049;28;20030;-72
2021/01/03 02:44:25;;;;;;;1.25;0.77;;;10.60;60.90;;;;;;20702280;28;20040;-72
2021/01/03 02:54:25;;;;;;;0.75;0.32;;;10.60;60.90;;;;;;20725270;28;20117;-72
2021/01/03 03:04:26;;;;;;;0.73;0.70;;;10.70;61.50;;;;;;20707813;28;20092;-74
2021/01/03 03:14:26;;;;;;;1.65;0.73;;;10.60;60.90;;;;;;20698254;28;20447;-71
2021/01/03 03:24:28;;;;;;;1.15;0.60;;;10.60;61.00;;;;;;20724560;28;20038;-72
2021/01/03 03:34:29;;;;;;;0.20;0.20;;;10.60;60.90;;;;;;20713561;28;20049;-72
2021/01/03 03:44:29;;;;;;;1.33;0.50;;;10.60;61.00;;;;;;20711892;28;20396;-73
2021/01/03 03:54:30;;;;;;;1.85;0.68;;;10.60;61.10;;;;;;20701527;28;20584;-71
2021/01/03 04:04:31;;;;;;;0.95;0.30;;;10.60;61.10;;;;;;20711630;28;20042;-71
2021/01/03 04:14:31;;;;;;;1.45;0.70;;;10.60;61.00;;;;;;20711158;28;20141;-71
2021/01/03 04:24:32;;;;;;;0.50;0.38;;;10.60;61.10;;;;;;20709384;28;20048;-73
2021/01/03 04:34:35;;;;;;;3.33;0.55;;;10.60;61.10;;;;;;20725050;28;20037;-73
2021/01/03 04:44:42;;;;;;;0.82;0.45;;;10.60;61.10;;;;;;20726778;28;20095;-72
2021/01/03 04:55:20;;;;;;;1.05;0.70;;;10.60;61.20;;;;;;20714165;28;20109;-73
2021/01/03 05:05:32;;;;;;;1.85;0.50;;;10.60;61.20;;;;;;20713782;28;20034;-72
2021/01/03 05:15:33;;;;;;;0.50;0.30;;;10.60;61.40;;;;;;20667677;28;20029;-72
2021/01/03 05:25:39;;;;;;;3.75;0.82;;;10.80;61.80;;;;;;20671738;28;20054;-71
2021/01/03 05:35:44;;;;;;;1.40;0.65;;;11.10;61.40;;;;;;20720833;28;20535;-71
2021/01/03 05:45:57;;;;;;;0.57;0.30;;;11.40;60.60;;;;;;20728473;28;20133;-72
2021/01/03 05:55:59;;;;;;;3.40;1.10;;;11.70;60.00;;;;;;20727914;28;20030;-72
2021/01/03 06:06:08;;;;;;;0.65;0.60;;;11.90;59.10;;;;;;20698503;28;20038;-72
2021/01/03 06:16:08;;;;;;;1.10;0.73;;;12.00;58.40;;;;;;20724657;28;20444;-72
2021/01/03 06:26:18;;;;;;;3.50;0.57;;;11.90;57.70;;;;;;20686966;28;20099;-75
2021/01/03 06:36:22;;;;;;;2.55;0.82;;;11.70;57.60;;;;;;20710914;28;20030;-73
2021/01/03 06:46:44;;;;;;;0.98;0.75;;;11.50;57.70;;;;;;20712057;28;20038;-74
2021/01/03 06:57:08;;;;;;;0.60;0.40;;;11.30;58.30;;;;;;20699968;28;20061;-71
2021/01/03 07:07:23;;;;;;;1.70;0.65;;;11.20;58.60;;;;;;20719266;28;20038;-74
2021/01/03 07:17:43;;;;;;;0.65;0.40;;;11.10;59.00;;;;;;20686749;28;20121;-72
2021/01/03 07:27:44;;;;;;;0.70;0.52;;;11.10;59.30;;;;;;20707916;28;20496;-72
2021/01/03 07:37:45;;;;;;;0.57;0.38;;;11.10;59.60;;;;;;20707149;28;20061;-71
2021/01/03 07:47:50;;;;;;;0.60;0.55;;;11.00;59.80;;;;;;20705195;28;20389;-72
2021/01/03 07:57:58;;;;;;;1.45;0.80;;;11.00;59.90;;;;;;20703577;28;20487;-75
2021/01/03 08:08:20;;;;;;;1.58;0.68;;;11.00;59.90;;;;;;20691758;28;20041;-74
2021/01/03 08:18:21;;;;;;;1.95;0.57;;;10.90;59.90;;;;;;20688019;28;20053;-73
2021/01/03 08:28:21;;;;;;;0.73;0.63;;;11.00;60.10;;;;;;20717961;28;20555;-74
2021/01/03 08:38:27;;;;;;;0.82;0.70;;;11.00;60.10;;;;;;20705675;28;20029;-73
2021/01/03 08:48:28;;;;;;;1.83;0.75;;;11.00;60.10;;;;;;20718399;28;20038;-72
2021/01/03 08:58:37;;;;;;;0.43;0.32;;;11.00;60.10;;;;;;20705508;28;20054;-73
2021/01/03 09:08:41;;;;;;;1.08;0.68;;;11.00;60.20;;;;;;20680828;28;20366;-81
2021/01/03 09:18:59;;;;;;;2.55;1.00;;;11.00;60.30;;;;;;21118754;22;20045;-71
2021/01/03 09:29:11;;;;;;;;;;;10.90;60.10;;;;;;20814928;28;20687;-70
2021/01/03 09:39:40;;;;;;;3.00;0.63;;;10.90;60.20;;;;;;20836136;28;19909;-70
2021/01/03 09:49:52;;;;;;;1.83;0.50;;;11.00;60.20;;;;;;20801539;28;20064;-70
2021/01/03 09:59:58;;;;;;;3.60;0.98;;;11.10;60.50;;;;;;20821430;28;20033;-70
2021/01/03 10:10:06;;;;;;;0.83;0.50;;;11.30;60.30;;;;;;20777876;28;20091;-71
2021/01/03 10:20:39;;;;;;;3.47;0.90;;;11.70;59.90;;;;;;20798040;28;20069;-71
2021/01/03 10:30:40;;;;;;;2.75;1.55;;;11.90;58.70;;;;;;20822009;28;20041;-69
2021/01/03 10:40:41;;;;;;;2.22;0.82;;;11.80;58.00;;;;;;20815887;28;20112;-73
2021/01/03 10:50:42;;;;;;;4.28;1.00;;;11.60;58.60;;;;;;20815631;28;20129;-73
2021/01/03 11:00:42;;;;;;;1.33;0.77;;;11.40;58.20;;;;;;20805357;28;20037;-74
2021/01/03 11:10:43;;;;;;;2.92;0.77;;;11.30;58.50;;;;;;20807250;28;20378;-73
2021/01/03 11:20:43;;;;;;;2.10;1.08;;;11.20;59.00;;;;;;20823357;28;20041;-72
2021/01/03 11:30:44;;;;;;;1.45;0.45;;;11.10;59.10;;;;;;20806854;28;20029;-69
2021/01/03 11:40:45;;;;;;;0.98;0.57;;;11.10;59.50;;;;;;20802464;28;20083;-70
2021/01/03 11:50:45;;;;;;;1.85;0.90;;;11.00;59.70;;;;;;20827819;28;20029;-72
2021/01/03 12:00:46;;;;;;;1.88;1.13;;;11.00;59.80;;;;;;20812108;28;20036;-70
2021/01/03 12:10:46;;;;;;;0.85;0.55;;;11.00;59.90;;;;;;20807659;28;20044;-70
2021/01/03 12:20:47;;;;;;;1.75;0.88;;;11.00;60.00;;;;;;20806827;28;20136;-69
2021/01/03 12:30:48;;;;;;;2.63;0.88;;;11.00;60.20;;;;;;20830174;28;20354;-67
2021/01/03 12:40:48;;;;;;;0.77;0.40;;;11.00;60.20;;;;;;20814914;28;20492;-67
2021/01/03 12:50:49;;;;;;;2.97;1.13;;;11.00;60.30;;;;;;20800272;28;20033;-69
2021/01/03 13:00:50;;;;;;;3.10;0.65;;;11.00;60.20;;;;;;20835855;28;20057;-67
2021/01/03 13:10:51;;;;;;;0.45;0.30;;;11.00;60.00;;;;;;20828255;28;20037;-68
2021/01/03 13:20:51;;;;;;;0.50;0.38;;;11.00;60.00;;;;;;20802445;28;20041;-67
2021/01/03 13:30:52;;;;;;;2.72;0.32;;;11.00;60.00;;;;;;20815763;28;20124;-69
2021/01/03 13:40:53;;;;;;;0.80;0.25;;;11.00;60.10;;;;;;20837283;28;20037;-68
2021/01/03 13:50:53;;;;;;;1.03;0.90;;;10.90;60.10;;;;;;20821144;28;20530;-68
2021/01/03 14:00:54;;;;;;;0.93;0.50;;;11.00;60.60;;;;;;20838240;28;20376;-67
2021/01/03 14:10:54;;;;;;;0.20;0.20;;;11.30;60.50;;;;;;20848235;28;20295;-68
2021/01/03 14:20:55;;;;;;;0.43;0.22;;;11.60;60.10;;;;;;20822004;28;20048;-69
2021/01/03 14:30:55;;;;;;;1.40;0.30;;;11.80;59.30;;;;;;20837443;28;20033;-69
2021/01/03 14:40:59;;;;;;;0.38;0.38;;;11.80;58.20;;;;;;20836747;28;20025;-68
2021/01/03 14:51:19;;;;;;;0.55;0.43;;;11.60;57.90;;;;;;20835033;28;20047;-68
2021/01/03 15:01:32;;;;;;;0.30;0.20;;;11.40;58.10;;;;;;20830832;28;20111;-67
2021/01/03 15:11:32;;;;;;;0.50;0.30;;;11.30;58.40;;;;;;20813426;28;20052;-67
2021/01/03 15:21:36;;;;;;;0.30;0.30;;;11.20;58.80;;;;;;20810038;28;20151;-69
2021/01/03 15:31:40;;;;;;;0.20;0.20;;;11.10;59.10;;;;;;20804739;28;20053;-69
2021/01/03 15:41:52;;;;;;;0.47;0.43;;;11.10;59.30;;;;;;20810238;28;20704;-72
2021/01/03 15:51:53;;;;;;;0.28;0.17;;;11.10;59.60;;;;;;20854087;28;20048;-67
2021/01/03 16:01:54;;;;;;;0.30;0.30;;;11.10;59.80;;;;;;20823850;28;20056;-69
2021/01/03 16:11:55;;;;;;;1.85;0.55;;;11.00;59.90;;;;;;20823002;28;20053;-69
2021/01/03 16:22:20;;;;;;;0.43;0.40;;;11.00;60.00;;;;;;20852778;28;20111;-69
2021/01/03 16:32:48;;;;;;;0.52;0.50;;;11.00;60.10;;;;;;20836567;28;20038;-69
2021/01/03 16:43:05;;;;;;;1.83;0.40;;;11.00;60.10;;;;;;20838834;28;20102;-67
2021/01/03 16:53:33;;;;;;;0.43;0.30;;;11.00;60.20;;;;;;20827998;28;20041;-67
2021/01/03 17:03:43;;;;;;;0.30;0.20;;;11.00;60.00;;;;;;20826639;28;20341;-69
2021/01/03 17:13:59;;;;;;;0.28;0.25;;;11.00;60.60;;;;;;20801332;28;20068;-68
2021/01/03 17:24:12;;;;;;;0.57;0.50;;;11.00;60.10;;;;;;20827137;28;20025;-68
2021/01/03 17:34:31;;;;;;;1.25;0.40;;;10.90;60.10;;;;;;20837736;28;20047;-69
2021/01/03 17:44:41;;;;;;;0.70;0.20;;;10.90;60.20;;;;;;20852539;28;20041;-68
2021/01/03 17:54:42;;;;;;;0.20;0.13;;;10.90;60.30;;;;;;20845673;28;20052;-70
2021/01/03 18:04:42;;;;;;;0.10;0.10;;;10.80;60.30;;;;;;20841836;28;20472;-70
2021/01/03 18:14:43;;;;;;;0.10;0.10;;;10.80;60.40;;;;;;20854633;28;20338;-69
2021/01/03 18:24:45;;;;;;;1.40;0.60;;;10.80;60.50;;;;;;20858405;28;20029;-69
2021/01/03 18:34:47;;;;;;;1.08;0.30;;;10.80;60.50;;;;;;20857305;28;20029;-68
2021/01/03 18:44:48;;;;;;;0.43;0.30;;;10.80;60.60;;;;;;20814047;28;20032;-69
2021/01/03 18:54:48;;;;;;;0.40;0.38;;;10.80;60.60;;;;;;20836795;28;20038;-68
2021/01/03 19:04:49;;;;;;;0.10;0.10;;;10.80;60.60;;;;;;20836619;28;20037;-69
2021/01/03 19:14:50;;;;;;;0.17;0.17;;;10.70;60.50;;;;;;20851516;28;20072;-68
2021/01/03 19:24:50;;;;;;;0.85;0.50;;;10.70;60.60;;;;;;20815648;28;20037;-68
2021/01/03 19:34:51;;;;;;;0.55;0.20;;;10.70;60.60;;;;;;20828215;28;20150;-68
2021/01/03 19:44:51;;;;;;;0.20;0.13;;;10.70;60.60;;;;;;20822396;28;20024;-67
2021/01/03 19:54:52;;;;;;;0.60;0.20;;;10.70;60.70;;;;;;20822248;28;20136;-66
2021/01/03 20:04:52;;;;;;;0.10;0.10;;;10.70;60.70;;;;;;20827871;28;20030;-67
2021/01/03 20:14:54;;;;;;;0.10;0.10;;;10.60;60.70;;;;;;20817778;28;20033;-68
2021/01/03 20:24:54;;;;;;;1.98;0.50;;;10.60;60.70;;;;;;20826954;28;20029;-66
2021/01/03 20:34:55;;;;;;;0.15;0.15;;;10.60;60.70;;;;;;20824418;28;20056;-67
2021/01/03 20:44:56;;;;;;;0.10;0.10;;;10.60;60.70;;;;;;20823270;28;20081;-68
2021/01/03 20:54:57;;;;;;;0.00;0.00;;;10.60;60.80;;;;;;20817887;28;20149;-68
2021/01/03 21:04:57;;;;;;;0.40;0.40;;;10.60;60.80;;;;;;20819181;28;20030;-67
2021/01/03 21:14:58;;;;;;;0.32;0.30;;;10.50;60.70;;;;;;20827613;28;20068;-68
2021/01/03 21:24:58;;;;;;;0.10;0.10;;;10.60;60.80;;;;;;20829101;28;20033;-68
2021/01/03 21:35:26;;;;;;;1.13;0.28;;;10.50;60.80;;;;;;20814549;28;20036;-67
2021/01/03 21:45:29;;;;;;;0.20;0.20;;;10.50;60.80;;;;;;20821252;28;20040;-66
2021/01/03 21:55:56;;;;;;;0.05;0.05;;;10.50;60.90;;;;;;20844002;28;20021;-67
2021/01/03 22:06:18;;;;;;;0.17;0.17;;;10.50;60.90;;;;;;20817052;28;20041;-67
2021/01/03 22:16:29;;;;;;;0.20;0.10;;;10.50;60.90;;;;;;20832641;28;20087;-69
2021/01/03 22:26:31;;;;;;;0.43;0.15;;;10.50;60.90;;;;;;20833955;28;20407;-67
2021/01/03 22:36:41;;;;;;;0.30;0.30;;;10.50;60.90;;;;;;20813775;28;20087;-67
2021/01/03 22:47:07;;;;;;;0.45;0.35;;;10.50;61.60;;;;;;20827679;28;20040;-67
2021/01/03 22:57:45;;;;;;;1.40;0.50;;;10.40;60.80;;;;;;20855125;28;20029;-68
2021/01/03 23:08:01;;;;;;;0.20;0.10;;;10.40;61.00;;;;;;20839948;28;20037;-66
2021/01/03 23:18:42;;;;;;;0.20;0.20;;;10.50;60.90;;;;;;20820641;28;20454;-68
2021/01/03 23:28:47;;;;;;;0.50;0.10;;;10.50;60.90;;;;;;20838028;28;20116;-67
2021/01/03 23:38:50;;;;;;;0.90;0.30;;;10.40;60.90;;;;;;20843966;28;20076;-66
2021/01/03 23:49:10;;;;;;;0.73;0.10;;;10.40;60.90;;;;;;20839672;28;20083;-65
2021/01/03 23:59:21;;;;;;;0.75;0.32;;;10.40;61.00;;;;;;20824078;28;20036;-66
